Time;durP1;ratioP1;P1;durP2;ratioP2;P2;SDS_P1;SDS_P2;PMS_P1;PMS_P2;Temp;Humidity;BMP_temperature;BMP_pressure;BME280_temperature;BME280_humidity;BME280_pressure;Samples;Min_cycle;Max_cycle;Signal;HPM_P1;HPM_P2
2022/10/23 00:01:20;;;;;;;0.00;0.00;;;;;;;17.36;69.40;99770.22;7346205;19;20845;-59
2022/10/23 00:03:46;;;;;;;0.00;0.00;;;;;;;17.40;70.72;99776.16;7342514;19;20885;-59
2022/10/23 00:06:13;;;;;;;0.00;0.00;;;;;;;17.40;70.84;99765.59;7349692;19;20026;-59
2022/10/23 00:08:39;;;;;;;0.10;0.10;;;;;;;17.40;70.70;99762.94;7350992;19;20588;-59
2022/10/23 00:11:07;;;;;;;0.00;0.00;;;;;;;17.41;70.88;99762.00;7344010;19;20090;-56
2022/10/23 00:13:32;;;;;;;0.00;0.00;;;;;;;17.40;70.96;99765.59;7343843;19;20495;-58
2022/10/23 00:15:57;;;;;;;0.00;0.00;;;;;;;17.35;70.51;99757.97;7336874;19;20007;-59
2022/10/23 00:18:23;;;;;;;0.00;0.00;;;;;;;17.38;70.06;99763.88;7342707;19;20015;-59
2022/10/23 00:20:48;;;;;;;0.00;0.00;;;;;;;17.37;70.17;99766.63;7347655;19;20010;-58
2022/10/23 00:23:15;;;;;;;0.00;0.00;;;;;;;17.39;69.64;99770.03;7349674;19;20025;-59
2022/10/23 00:25:41;;;;;;;0.00;0.00;;;;;;;17.38;69.88;99763.03;7356443;19;20014;-59
2022/10/23 00:28:06;;;;;;;0.00;0.00;;;;;;;17.36;70.25;99749.94;7355307;19;20011;-59
2022/10/23 00:30:31;;;;;;;0.00;0.00;;;;;;;17.35;70.01;99748.25;7354306;19;20763;-59
2022/10/23 00:32:57;;;;;;;0.10;0.10;;;;;;;17.33;69.64;99751.94;7354319;19;20121;-58
2022/10/23 00:35:22;;;;;;;0.08;0.08;;;;;;;17.31;69.57;99756.47;7357118;19;20018;-59
2022/10/23 00:37:48;;;;;;;0.10;0.10;;;;;;;17.29;69.92;99759.22;7355982;19;20497;-59
2022/10/23 00:40:13;;;;;;;0.10;0.10;;;;;;;17.28;70.32;99757.50;7357230;19;20748;-58
2022/10/23 00:42:39;;;;;;;0.10;0.10;;;;;;;17.26;70.50;99754.13;7353146;19;20125;-59
2022/10/23 00:45:19;;;;;;;0.00;0.00;;;;;;;17.28;69.46;99756.66;7354496;19;20018;-58
2022/10/23 00:47:45;;;;;;;0.00;0.00;;;;;;;17.22;70.31;99750.00;7354203;19;20967;-58
2022/10/23 00:50:11;;;;;;;0.10;0.10;;;;;;;17.22;70.74;99746.53;7356920;19;20030;-59
2022/10/23 00:52:44;;;;;;;0.00;0.00;;;;;;;17.21;70.75;99743.03;7354048;19;20014;-59
2022/10/23 00:55:09;;;;;;;0.00;0.00;;;;;;;17.20;71.08;99746.63;7355793;19;20049;-59
2022/10/23 00:57:39;;;;;;;0.10;0.10;;;;;;;17.19;72.33;99747.56;7356744;19;22395;-59
2022/10/23 01:00:05;;;;;;;0.00;0.00;;;;;;;17.15;72.72;99756.63;7353619;19;20009;-59
2022/10/23 01:02:31;;;;;;;0.00;0.00;;;;;;;17.11;73.45;99744.59;7355508;19;20010;-59
2022/10/23 01:04:56;;;;;;;0.10;0.10;;;;;;;17.07;73.55;99756.28;7354857;19;20094;-59
2022/10/23 01:07:31;;;;;;;0.00;0.00;;;;;;;17.04;73.89;99757.34;7356756;19;20114;-60
2022/10/23 01:09:59;;;;;;;0.00;0.00;;;;;;;16.98;74.40;99762.13;7354452;19;20116;-60
2022/10/23 01:12:53;;;;;;;0.00;0.00;;;;;;;16.94;73.83;99750.94;7353879;19;20015;-60
2022/10/23 01:15:46;;;;;;;0.10;0.10;;;;;;;16.90;73.27;99756.53;7251139;19;2004239;-59
2022/10/23 01:18:17;;;;;;;0.10;0.10;;;;;;;16.83;75.75;99756.91;7257244;19;2004450;-60
2022/10/23 01:20:52;;;;;;;0.00;0.00;;;;;;;16.78;76.35;99756.38;7357249;19;20033;-59
2022/10/23 01:23:26;;;;;;;0.00;0.00;;;;;;;16.76;75.63;99755.59;7357564;19;20256;-58
2022/10/23 01:25:54;;;;;;;0.10;0.10;;;;;;;16.72;76.74;99758.53;7356377;19;20006;-58
2022/10/23 01:28:48;;;;;;;0.05;0.05;;;;;;;16.71;75.03;99743.63;7357569;19;20015;-59
2022/10/23 01:31:21;;;;;;;0.00;0.00;;;;;;;16.67;77.20;99740.31;7254492;19;2004554;-59
2022/10/23 01:33:53;;;;;;;0.00;0.00;;;;;;;16.67;77.81;99734.22;7356080;19;20121;-59
2022/10/23 01:36:23;;;;;;;0.00;0.00;;;;;;;16.64;77.97;99735.25;7354944;19;20025;-60
2022/10/23 01:38:57;;;;;;;0.00;0.00;;;;;;;16.66;78.14;99730.72;7353581;19;20446;-59
2022/10/23 01:41:35;;;;;;;0.00;0.00;;;;;;;16.57;78.01;99697.03;7355859;19;20018;-60
2022/10/23 01:44:07;;;;;;;0.00;0.00;;;;;;;16.67;78.48;99706.06;7356993;19;20019;-59
2022/10/23 01:46:36;;;;;;;0.00;0.00;;;;;;;16.66;79.17;99704.38;7355355;19;20066;-59
2022/10/23 01:49:07;;;;;;;0.00;0.00;;;;;;;16.69;79.15;99705.97;7357830;19;20010;-59
2022/10/23 01:51:35;;;;;;;0.00;0.00;;;;;;;16.69;79.38;99696.28;7356780;19;20465;-59
2022/10/23 01:54:04;;;;;;;0.00;0.00;;;;;;;16.69;79.44;99696.28;7356897;19;20019;-59
2022/10/23 01:56:34;;;;;;;0.00;0.00;;;;;;;16.70;79.31;99695.31;7357807;19;20014;-59
2022/10/23 01:59:04;;;;;;;0.00;0.00;;;;;;;16.71;78.91;99683.84;7352443;19;20010;-60
2022/10/23 02:01:31;;;;;;;0.10;0.10;;;;;;;16.71;79.55;99689.13;7361210;19;20024;-59
2022/10/23 02:03:59;;;;;;;0.10;0.10;;;;;;;16.61;79.34;99667.75;7358599;19;20041;-59
2022/10/23 02:06:24;;;;;;;0.03;0.03;;;;;;;16.71;79.56;99682.97;7362171;19;20078;-60
2022/10/23 02:08:50;;;;;;;0.10;0.10;;;;;;;16.70;79.75;99676.88;7362357;19;20036;-59
2022/10/23 02:11:19;;;;;;;0.00;0.00;;;;;;;16.72;79.74;99672.38;7361314;19;20036;-59
2022/10/23 02:13:50;;;;;;;0.05;0.05;;;;;;;16.70;79.50;99668.97;7363139;19;20047;-59
2022/10/23 02:16:56;;;;;;;0.10;0.10;;;;;;;16.74;77.62;99662.59;7360791;19;20811;-59
2022/10/23 02:19:30;;;;;;;0.10;0.10;;;;;;;16.71;79.22;99660.13;7256371;19;2004237;-59
2022/10/23 02:22:11;;;;;;;0.00;0.00;;;;;;;16.70;79.67;99663.69;7356125;19;20143;-59
2022/10/23 02:24:51;;;;;;;0.10;0.10;;;;;;;16.70;79.54;99665.47;7358511;19;21447;-59
2022/10/23 02:27:24;;;;;;;0.05;0.05;;;;;;;16.70;79.52;99663.69;7362376;19;20903;-59
2022/10/23 02:30:00;;;;;;;0.00;0.00;;;;;;;16.61;79.01;99644.03;7359854;19;20031;-59
2022/10/23 02:32:27;;;;;;;0.10;0.10;;;;;;;16.66;79.56;99656.06;7361667;19;20017;-58
2022/10/23 02:34:53;;;;;;;0.10;0.10;;;;;;;16.59;79.74;99653.84;7360587;19;20011;-59
2022/10/23 02:37:19;;;;;;;0.00;0.00;;;;;;;16.64;79.88;99661.47;7358720;19;20029;-59
2022/10/23 02:39:45;;;;;;;0.00;0.00;;;;;;;16.63;79.60;99654.50;7361267;19;20018;-58
2022/10/23 02:42:20;;;;;;;0.00;0.00;;;;;;;16.64;79.41;99656.19;7361531;19;20442;-60
2022/10/23 02:45:12;;;;;;;0.00;0.00;;;;;;;16.57;78.53;99639.94;7357182;19;21121;-59
2022/10/23 02:48:03;;;;;;;0.10;0.10;;;;;;;16.66;78.65;99648.16;7255543;19;2004353;-60
2022/10/23 02:50:48;;;;;;;0.00;0.00;;;;;;;16.66;79.76;99642.91;7256034;19;2004543;-60
2022/10/23 02:53:19;;;;;;;0.00;0.00;;;;;;;16.63;79.85;99638.69;7359827;19;20011;-58
2022/10/23 02:56:20;;;;;;;0.00;0.00;;;;;;;16.69;79.10;99637.44;7361520;19;20007;-59
2022/10/23 02:59:18;;;;;;;0.00;0.00;;;;;;;16.68;79.04;99631.31;7258026;19;2004495;-59
2022/10/23 03:01:50;;;;;;;0.00;0.00;;;;;;;16.69;79.57;99622.47;7256189;19;2004481;-58
2022/10/23 03:04:18;;;;;;;0.00;0.00;;;;;;;16.59;80.26;99600.28;7351497;19;20044;-59
2022/10/23 03:06:45;;;;;;;0.03;0.03;;;;;;;16.65;79.88;99605.16;7351440;19;20119;-57
2022/10/23 03:09:10;;;;;;;0.10;0.10;;;;;;;16.68;80.15;99599.69;7349426;19;22242;-59
2022/10/23 03:11:36;;;;;;;0.00;0.00;;;;;;;16.61;80.26;99588.69;7362132;19;20021;-60
2022/10/23 03:14:01;;;;;;;0.00;0.00;;;;;;;16.60;80.36;99580.88;7359194;19;20010;-59
2022/10/23 03:16:26;;;;;;;0.00;0.00;;;;;;;16.69;79.93;99590.81;7361225;19;20696;-59
2022/10/23 03:18:52;;;;;;;0.05;0.05;;;;;;;16.68;80.08;99585.66;7352811;19;20010;-59
2022/10/23 03:21:17;;;;;;;0.00;0.00;;;;;;;16.72;80.25;99589.81;7351657;19;20082;-59
2022/10/23 03:23:43;;;;;;;0.10;0.10;;;;;;;16.71;79.86;99588.97;7353977;19;20036;-59
2022/10/23 03:26:08;;;;;;;0.00;0.00;;;;;;;16.75;79.84;99586.97;7355536;19;20002;-59
2022/10/23 03:28:34;;;;;;;0.00;0.00;;;;;;;16.77;79.92;99582.44;7355679;19;20015;-60
2022/10/23 03:31:01;;;;;;;0.00;0.00;;;;;;;16.78;80.12;99578.88;7357610;19;20113;-60
2022/10/23 03:33:27;;;;;;;0.00;0.00;;;;;;;16.79;80.28;99581.41;7358394;19;20473;-60
2022/10/23 03:35:52;;;;;;;0.10;0.10;;;;;;;16.72;79.96;99566.91;7358906;19;20480;-60
2022/10/23 03:38:17;;;;;;;0.00;0.00;;;;;;;16.72;80.18;99559.00;7351998;19;20525;-60
2022/10/23 03:40:43;;;;;;;0.00;0.00;;;;;;;16.77;80.03;99566.63;7359658;19;20109;-60
2022/10/23 03:43:08;;;;;;;0.00;0.00;;;;;;;16.84;79.76;99574.03;7353687;19;20066;-59
2022/10/23 03:45:37;;;;;;;0.08;0.08;;;;;;;16.85;80.17;99573.06;7358397;19;20602;-59
2022/10/23 03:48:03;;;;;;;0.10;0.10;;;;;;;16.85;80.02;99573.06;7358988;19;21914;-59
2022/10/23 03:50:28;;;;;;;0.00;0.00;;;;;;;16.86;79.72;99566.84;7355426;19;20023;-60
2022/10/23 03:52:53;;;;;;;0.00;0.00;;;;;;;16.87;79.72;99562.41;7358387;19;20014;-60
2022/10/23 03:55:19;;;;;;;0.08;0.08;;;;;;;16.88;79.89;99565.91;7358897;19;20576;-60
2022/10/23 03:57:44;;;;;;;0.00;0.00;;;;;;;16.87;79.92;99557.16;7358204;19;20010;-60
2022/10/23 04:00:10;;;;;;;0.10;0.10;;;;;;;16.88;79.96;99550.06;7363767;19;20544;-60
2022/10/23 04:02:36;;;;;;;0.10;0.10;;;;;;;16.85;79.93;99544.06;7362482;19;20010;-60
2022/10/23 04:05:01;;;;;;;0.10;0.10;;;;;;;16.85;80.06;99538.78;7363977;19;20018;-60
2022/10/23 04:07:27;;;;;;;0.10;0.10;;;;;;;16.85;79.91;99527.41;7363378;19;20106;-60
2022/10/23 04:09:52;;;;;;;0.10;0.10;;;;;;;16.85;79.51;99525.63;7364652;19;20035;-60
2022/10/23 04:12:17;;;;;;;0.00;0.00;;;;;;;16.86;79.94;99519.38;7362970;19;20093;-60
2022/10/23 04:14:43;;;;;;;0.00;0.00;;;;;;;16.77;79.84;99487.53;7364496;19;20010;-60
2022/10/23 04:17:08;;;;;;;0.00;0.00;;;;;;;16.86;79.73;99498.28;7361446;19;20026;-60
2022/10/23 04:19:33;;;;;;;0.10;0.10;;;;;;;16.88;79.34;99494.69;7364889;19;20014;-60
2022/10/23 04:21:59;;;;;;;0.00;0.00;;;;;;;16.88;79.93;99490.31;7364639;19;21449;-60
2022/10/23 04:24:25;;;;;;;0.10;0.10;;;;;;;16.89;79.70;99493.78;7361637;19;20035;-60
2022/10/23 04:26:50;;;;;;;0.10;0.10;;;;;;;16.89;79.97;99496.41;7362402;19;20010;-59
2022/10/23 04:29:16;;;;;;;0.00;0.00;;;;;;;16.89;79.60;99496.41;7365120;19;20006;-61
2022/10/23 04:31:41;;;;;;;0.05;0.05;;;;;;;16.91;79.88;99494.50;7362533;19;20017;-60
2022/10/23 04:34:07;;;;;;;0.10;0.10;;;;;;;16.92;79.98;99490.91;7362225;19;20021;-60
2022/10/23 04:36:32;;;;;;;0.00;0.00;;;;;;;16.88;79.64;99473.59;7340288;19;20760;-60
2022/10/23 04:39:02;;;;;;;0.08;0.08;;;;;;;16.94;80.01;99478.50;7346122;19;25335;-60
2022/10/23 04:41:28;;;;;;;0.00;0.00;;;;;;;16.86;79.41;99477.19;7294226;19;20090;-60
2022/10/23 04:43:53;;;;;;;0.00;0.00;;;;;;;16.95;79.26;99490.72;7362534;19;20010;-58
2022/10/23 04:46:18;;;;;;;0.10;0.10;;;;;;;16.93;79.27;99480.28;7363831;19;20010;-61
2022/10/23 04:48:44;;;;;;;0.00;0.00;;;;;;;16.94;79.37;99465.31;7361465;19;20018;-60
2022/10/23 04:51:09;;;;;;;0.10;0.10;;;;;;;16.93;79.50;99460.94;7362753;19;20089;-60
2022/10/23 04:53:35;;;;;;;0.00;0.00;;;;;;;16.95;79.71;99464.34;7362115;19;20029;-60
2022/10/23 04:56:00;;;;;;;0.00;0.00;;;;;;;16.96;79.88;99455.47;7362752;19;20014;-61
2022/10/23 04:58:27;;;;;;;0.08;0.08;;;;;;;16.95;79.88;99437.97;7358950;19;20029;-60
2022/10/23 05:00:53;;;;;;;0.00;0.00;;;;;;;16.96;79.01;99447.56;7361973;19;20003;-61
2022/10/23 05:03:18;;;;;;;0.00;0.00;;;;;;;16.96;79.53;99439.66;7359989;19;20033;-60
2022/10/23 05:05:44;;;;;;;0.00;0.00;;;;;;;16.91;79.29;99426.78;7364374;19;20011;-60
2022/10/23 05:08:10;;;;;;;0.05;0.05;;;;;;;16.97;79.74;99425.50;7361275;19;20351;-60
2022/10/23 05:10:35;;;;;;;0.10;0.10;;;;;;;16.95;79.25;99427.44;7362403;19;20901;-60
2022/10/23 05:13:02;;;;;;;0.00;0.00;;;;;;;16.98;79.38;99429.84;7361342;19;20667;-60
2022/10/23 05:15:28;;;;;;;0.00;0.00;;;;;;;16.97;79.45;99409.69;7361044;19;20018;-60
2022/10/23 05:17:57;;;;;;;0.00;0.00;;;;;;;16.99;79.40;99399.91;7362749;19;20413;-60
2022/10/23 05:20:27;;;;;;;0.00;0.00;;;;;;;17.00;79.35;99398.94;7360067;19;20030;-60
2022/10/23 05:22:55;;;;;;;0.00;0.00;;;;;;;16.99;79.55;99398.09;7364393;19;21873;-60
2022/10/23 05:25:20;;;;;;;0.00;0.00;;;;;;;16.96;79.73;99402.72;7361537;19;20769;-60
2022/10/23 05:27:46;;;;;;;0.00;0.00;;;;;;;16.98;79.32;99406.97;7364450;19;20022;-60
2022/10/23 05:30:12;;;;;;;0.00;0.00;;;;;;;16.99;79.47;99397.25;7358834;19;20019;-61
2022/10/23 05:32:39;;;;;;;0.00;0.00;;;;;;;16.96;79.39;99402.72;7360309;19;20514;-61
2022/10/23 05:35:12;;;;;;;0.08;0.08;;;;;;;16.99;79.56;99403.38;7361427;19;20021;-60
2022/10/23 05:37:40;;;;;;;0.00;0.00;;;;;;;16.96;79.79;99392.19;7361654;19;20011;-61
2022/10/23 05:40:07;;;;;;;0.00;0.00;;;;;;;16.96;79.60;99393.03;7359905;19;20013;-59
2022/10/23 05:42:32;;;;;;;0.10;0.10;;;;;;;16.96;79.74;99392.19;7361924;19;20510;-60
2022/10/23 05:44:57;;;;;;;0.00;0.00;;;;;;;16.95;79.58;99385.22;7358225;19;20097;-60
2022/10/23 05:47:23;;;;;;;0.00;0.00;;;;;;;16.96;79.75;99381.63;7363958;19;20037;-61
2022/10/23 05:49:48;;;;;;;0.10;0.10;;;;;;;16.96;79.68;99376.38;7362800;19;20019;-60
2022/10/23 05:52:14;;;;;;;0.00;0.00;;;;;;;16.96;79.60;99371.09;7359923;19;20017;-60
2022/10/23 05:54:39;;;;;;;0.00;0.00;;;;;;;16.95;79.79;99369.41;7359270;19;20831;-60
2022/10/23 05:57:04;;;;;;;0.10;0.10;;;;;;;16.91;79.91;99360.88;7362885;19;20879;-61
2022/10/23 05:59:30;;;;;;;0.00;0.00;;;;;;;16.98;79.83;99374.44;7336346;19;20019;-60
2022/10/23 06:01:55;;;;;;;0.00;0.00;;;;;;;16.97;79.36;99364.84;7357429;19;20333;-61
2022/10/23 06:04:20;;;;;;;0.10;0.10;;;;;;;16.97;79.72;99367.50;7347416;19;20017;-61
2022/10/23 06:06:46;;;;;;;0.10;0.10;;;;;;;16.97;79.73;99365.69;7356388;19;20565;-60
2022/10/23 06:09:13;;;;;;;0.10;0.10;;;;;;;16.86;79.65;99355.91;7358935;19;20003;-60
2022/10/23 06:11:38;;;;;;;0.00;0.00;;;;;;;16.97;79.42;99363.06;7356473;19;20035;-60
2022/10/23 06:14:05;;;;;;;0.00;0.00;;;;;;;16.97;79.44;99363.06;7358277;19;20089;-60
2022/10/23 06:16:31;;;;;;;0.00;0.00;;;;;;;16.97;79.54;99367.50;7360177;19;20040;-60
2022/10/23 06:18:56;;;;;;;0.00;0.00;;;;;;;16.96;79.56;99365.81;7359942;19;20011;-60
2022/10/23 06:21:22;;;;;;;0.10;0.10;;;;;;;16.95;79.34;99358.88;7356808;19;20018;-60
2022/10/23 06:23:47;;;;;;;0.00;0.00;;;;;;;16.95;79.38;99353.59;7359217;19;20082;-60
2022/10/23 06:26:16;;;;;;;0.10;0.10;;;;;;;16.98;79.28;99345.44;7360807;19;20014;-59
2022/10/23 06:28:42;;;;;;;0.03;0.03;;;;;;;16.96;79.36;99334.16;7345069;19;20012;-60
2022/10/23 06:31:12;;;;;;;0.00;0.00;;;;;;;16.96;79.44;99318.34;7355382;19;20002;-60
2022/10/23 06:33:38;;;;;;;0.00;0.00;;;;;;;16.83;79.47;99303.41;7347648;19;20010;-60
2022/10/23 06:36:07;;;;;;;0.00;0.00;;;;;;;16.93;79.62;99318.56;7360091;19;20740;-60
2022/10/23 06:38:35;;;;;;;0.00;0.00;;;;;;;16.91;79.61;99308.13;7359499;19;20002;-60
2022/10/23 06:41:02;;;;;;;0.00;0.00;;;;;;;16.91;79.79;99304.66;7357617;19;20733;-60
2022/10/23 06:43:27;;;;;;;0.10;0.10;;;;;;;16.89;79.72;99302.13;7361003;19;20033;-60
2022/10/23 06:45:53;;;;;;;0.00;0.00;;;;;;;16.86;79.92;99304.97;7357569;19;20006;-60
2022/10/23 06:48:18;;;;;;;0.00;0.00;;;;;;;16.79;79.66;99291.38;7363052;19;20521;-61
2022/10/23 06:50:44;;;;;;;0.00;0.00;;;;;;;16.85;79.83;99296.22;7353394;19;20011;-61
2022/10/23 06:53:11;;;;;;;0.00;0.00;;;;;;;16.75;79.68;99279.38;7359469;19;20014;-60
2022/10/23 06:55:38;;;;;;;0.10;0.10;;;;;;;16.84;79.95;99289.28;7359226;19;20010;-60
2022/10/23 06:58:09;;;;;;;;;;;;;;;16.91;78.31;99291.47;7358479;19;20640;-60
2022/10/23 07:00:35;;;;;;;0.00;0.00;;;;;;;16.83;79.33;99292.88;7359901;19;19937;-60
2022/10/23 07:03:00;;;;;;;0.00;0.00;;;;;;;16.82;79.62;99291.16;7361100;19;20026;-60
2022/10/23 07:05:25;;;;;;;0.00;0.00;;;;;;;16.77;79.32;99282.72;7361909;19;20847;-60
2022/10/23 07:07:51;;;;;;;0.00;0.00;;;;;;;16.79;79.71;99280.84;7360754;19;21106;-60
2022/10/23 07:10:16;;;;;;;0.10;0.10;;;;;;;16.78;79.85;99273.06;7362916;19;20007;-60
2022/10/23 07:12:42;;;;;;;0.00;0.00;;;;;;;16.70;79.61;99256.91;7358884;19;20014;-60
2022/10/23 07:15:08;;;;;;;0.10;0.10;;;;;;;16.76;79.66;99270.50;7359402;19;20039;-61
2022/10/23 07:17:33;;;;;;;0.10;0.10;;;;;;;16.77;79.98;99276.63;7361105;19;20006;-60
2022/10/23 07:19:59;;;;;;;0.00;0.00;;;;;;;16.77;79.54;99277.47;7358213;19;20002;-60
2022/10/23 07:22:24;;;;;;;0.00;0.00;;;;;;;16.76;79.79;99270.50;7361588;19;20026;-61
2022/10/23 07:24:50;;;;;;;0.05;0.05;;;;;;;16.76;79.93;99270.50;7360431;19;20013;-60
2022/10/23 07:27:15;;;;;;;0.00;0.00;;;;;;;16.68;79.93;99250.91;7360722;19;20752;-60
2022/10/23 07:29:41;;;;;;;0.00;0.00;;;;;;;16.74;79.60;99261.03;7360825;19;20521;-60
2022/10/23 07:32:06;;;;;;;0.00;0.00;;;;;;;16.73;79.80;99254.94;7359728;19;20090;-60
2022/10/23 07:34:31;;;;;;;0.10;0.10;;;;;;;16.69;80.06;99245.50;7357900;19;20019;-61
2022/10/23 07:36:57;;;;;;;0.00;0.00;;;;;;;16.74;79.63;99250.50;7359783;19;20010;-60
2022/10/23 07:39:22;;;;;;;0.05;0.05;;;;;;;16.73;79.96;99238.28;7361572;19;20022;-60
2022/10/23 07:41:48;;;;;;;0.03;0.03;;;;;;;16.74;79.69;99235.53;7355749;19;20018;-60
2022/10/23 07:44:14;;;;;;;0.00;0.00;;;;;;;16.74;79.70;99248.69;7361149;19;20018;-60
2022/10/23 07:46:39;;;;;;;0.00;0.00;;;;;;;16.73;79.87;99239.09;7349843;19;20016;-60
2022/10/23 07:49:04;;;;;;;0.00;0.00;;;;;;;16.74;79.75;99242.59;7362242;19;20007;-60
2022/10/23 07:51:30;;;;;;;0.00;0.00;;;;;;;16.73;79.78;99233.84;7358410;19;20014;-60
2022/10/23 07:53:55;;;;;;;0.00;0.00;;;;;;;16.73;79.92;99233.00;7360210;19;20006;-60
2022/10/23 07:56:28;;;;;;;0.00;0.00;;;;;;;16.77;78.73;99240.56;7361896;19;20045;-59
2022/10/23 07:58:54;;;;;;;0.10;0.10;;;;;;;16.73;79.18;99238.28;7358632;19;20014;-60
2022/10/23 08:01:26;;;;;;;0.00;0.00;;;;;;;16.71;78.80;99230.44;7360061;19;20007;-60
2022/10/23 08:03:51;;;;;;;0.05;0.05;;;;;;;16.62;79.38;99215.25;7360009;19;20465;-60
2022/10/23 08:06:16;;;;;;;0.00;0.00;;;;;;;16.60;79.53;99222.44;7360345;19;20014;-60
2022/10/23 08:08:42;;;;;;;0.10;0.10;;;;;;;16.55;79.66;99219.28;7360942;19;20014;-59
2022/10/23 08:11:11;;;;;;;0.00;0.00;;;;;;;16.16;79.74;99155.28;7359534;19;20017;-59
2022/10/23 08:13:36;;;;;;;0.00;0.00;;;;;;;16.38;79.86;99201.22;7356009;19;20021;-59
2022/10/23 08:16:02;;;;;;;0.00;0.00;;;;;;;16.41;80.02;99200.97;7358523;19;20007;-58
2022/10/23 08:18:27;;;;;;;0.00;0.00;;;;;;;16.31;80.16;99182.34;7357606;19;20012;-59
2022/10/23 08:20:59;;;;;;;0.00;0.00;;;;;;;16.45;79.62;99202.44;7358255;19;20122;-58
2022/10/23 08:23:26;;;;;;;0.00;0.00;;;;;;;16.41;79.67;99200.97;7359267;19;20018;-59
2022/10/23 08:25:57;;;;;;;0.00;0.00;;;;;;;16.44;79.59;99196.34;7359941;19;20030;-59
2022/10/23 08:28:22;;;;;;;0.00;0.00;;;;;;;16.39;80.15;99192.34;7357556;19;20030;-58
2022/10/23 08:30:48;;;;;;;0.05;0.05;;;;;;;16.26;80.28;99172.13;7357991;19;20003;-59
2022/10/23 08:33:13;;;;;;;0.00;0.00;;;;;;;16.40;80.29;99189.59;7358747;19;20490;-59
2022/10/23 08:35:39;;;;;;;0.00;0.00;;;;;;;16.22;79.97;99165.41;7358678;19;20041;-58
2022/10/23 08:38:05;;;;;;;0.00;0.00;;;;;;;16.35;80.12;99192.56;7360516;19;22288;-59
2022/10/23 08:40:31;;;;;;;0.00;0.00;;;;;;;16.38;80.07;99190.66;7352755;19;20007;-58
2022/10/23 08:43:17;;;;;;;0.00;0.00;;;;;;;16.42;79.39;99195.59;7358410;19;21491;-59
2022/10/23 08:45:48;;;;;;;0.00;0.00;;;;;;;16.40;79.98;99188.75;7260864;19;2004372;-59
2022/10/23 08:48:32;;;;;;;0.00;0.00;;;;;;;16.43;79.16;99185.91;7364514;19;20006;-59
2022/10/23 08:51:13;;;;;;;0.00;0.00;;;;;;;16.43;79.08;99183.28;7364547;19;20017;-59
2022/10/23 08:53:49;;;;;;;0.00;0.00;;;;;;;16.44;79.28;99177.06;7365234;19;20836;-59
2022/10/23 08:56:27;;;;;;;0.00;0.00;;;;;;;16.45;79.35;99176.09;7366121;19;20142;-59
2022/10/23 08:59:07;;;;;;;0.00;0.00;;;;;;;16.45;79.34;99176.09;7365573;19;20010;-59
2022/10/23 09:01:48;;;;;;;0.00;0.00;;;;;;;16.47;79.45;99175.03;7358888;19;20015;-57
2022/10/23 09:04:15;;;;;;;0.00;0.00;;;;;;;16.45;79.85;99165.56;7358325;19;20014;-59
2022/10/23 09:06:49;;;;;;;0.03;0.03;;;;;;;16.49;79.37;99167.88;7361056;19;20019;-59
2022/10/23 09:09:44;;;;;;;0.10;0.10;;;;;;;16.53;79.51;99168.50;7364826;19;20351;-59
2022/10/23 09:12:16;;;;;;;0.10;0.10;;;;;;;16.53;79.58;99165.88;7259350;19;2004393;-58
2022/10/23 09:15:11;;;;;;;0.00;0.00;;;;;;;16.50;79.32;99155.53;7360558;19;20017;-59
2022/10/23 09:17:39;;;;;;;0.00;0.00;;;;;;;16.54;79.63;99167.53;7259981;19;2004384;-59
2022/10/23 09:20:41;;;;;;;0.10;0.10;;;;;;;16.58;78.59;99161.94;7354848;19;20039;-59
2022/10/23 09:23:15;;;;;;;0.00;0.00;;;;;;;16.59;78.92;99162.78;7254674;19;2004444;-59
2022/10/23 09:25:41;;;;;;;0.10;0.10;;;;;;;16.56;79.37;99158.56;7361127;19;20010;-59
2022/10/23 09:28:18;;;;;;;0.00;0.00;;;;;;;16.60;79.12;99160.03;7348756;19;20010;-59
2022/10/23 09:30:44;;;;;;;;;;;;;;;16.62;77.97;99162.53;7362177;19;20010;-59
2022/10/23 09:33:17;;;;;;;0.03;0.03;;;;;;;16.60;78.80;99164.47;7362711;19;19922;-59
2022/10/23 09:35:51;;;;;;;0.00;0.00;;;;;;;16.59;78.49;99168.91;7357426;19;20071;-59
2022/10/23 09:38:33;;;;;;;0.00;0.00;;;;;;;16.57;78.56;99175.22;7362048;19;20098;-58
2022/10/23 09:41:05;;;;;;;0.00;0.00;;;;;;;16.49;78.68;99156.50;7365484;19;20031;-60
2022/10/23 09:43:30;;;;;;;0.00;0.00;;;;;;;16.48;78.88;99155.66;7362479;19;20027;-59
2022/10/23 09:46:02;;;;;;;0.00;0.00;;;;;;;16.47;78.86;99153.09;7363056;19;21780;-60
2022/10/23 09:48:28;;;;;;;0.00;0.00;;;;;;;16.43;78.80;99163.03;7364884;19;21705;-59
2022/10/23 09:51:03;;;;;;;0.00;0.00;;;;;;;16.45;79.12;99163.75;7362927;19;22199;-59
2022/10/23 09:53:34;;;;;;;0.10;0.10;;;;;;;16.43;79.33;99156.94;7363715;19;20011;-59
2022/10/23 09:56:03;;;;;;;0.00;0.00;;;;;;;16.41;80.21;99159.66;7363894;19;20378;-59
2022/10/23 09:58:33;;;;;;;0.00;0.00;;;;;;;16.43;79.54;99163.03;7359296;19;20010;-59
2022/10/23 10:00:58;;;;;;;0.03;0.03;;;;;;;16.42;79.86;99160.50;7362479;19;20017;-58
2022/10/23 10:03:24;;;;;;;0.10;0.10;;;;;;;16.43;80.30;99154.31;7362191;19;20010;-59
2022/10/23 10:06:00;;;;;;;0.00;0.00;;;;;;;16.48;79.70;99150.38;7359666;19;20022;-59
2022/10/23 10:08:54;;;;;;;0.08;0.08;;;;;;;16.47;80.49;99153.09;7359724;19;20411;-59
2022/10/23 10:11:44;;;;;;;0.00;0.00;;;;;;;16.53;79.54;99155.31;7257795;19;2004550;-59
2022/10/23 10:14:34;;;;;;;0.00;0.00;;;;;;;16.56;79.65;99144.53;7259166;19;2004276;-59
2022/10/23 10:17:19;;;;;;;0.00;0.00;;;;;;;16.59;79.67;99139.06;7260800;19;2004447;-59
2022/10/23 10:19:55;;;;;;;0.05;0.05;;;;;;;16.57;80.23;99140.94;7363419;19;20121;-59
2022/10/23 10:22:23;;;;;;;0.00;0.00;;;;;;;16.58;80.22;99132.97;7359239;19;20014;-59
2022/10/23 10:25:00;;;;;;;0.00;0.00;;;;;;;16.60;79.36;99124.94;7355533;19;20017;-59
2022/10/23 10:27:52;;;;;;;0.00;0.00;;;;;;;16.66;79.90;99127.13;7362428;19;20292;-58
2022/10/23 10:30:22;;;;;;;0.10;0.10;;;;;;;16.71;79.12;99134.69;7253554;19;2004905;-59
2022/10/23 10:33:01;;;;;;;0.00;0.00;;;;;;;16.72;78.97;99126.69;7356501;19;20010;-59
2022/10/23 10:35:41;;;;;;;0.10;0.10;;;;;;;16.76;79.37;99124.69;7341436;19;20010;-58
2022/10/23 10:38:31;;;;;;;0.00;0.00;;;;;;;16.67;79.43;99102.44;7355482;19;20007;-59
2022/10/23 10:41:21;;;;;;;0.00;0.00;;;;;;;16.82;79.02;99111.88;7361544;19;20053;-59
2022/10/23 10:43:52;;;;;;;0.00;0.00;;;;;;;16.83;79.15;99105.69;7358526;19;20018;-59
2022/10/23 10:46:26;;;;;;;0.10;0.10;;;;;;;16.88;79.20;99113.25;7356215;19;20481;-59
2022/10/23 10:49:10;;;;;;;0.00;0.00;;;;;;;16.93;79.45;99107.59;7361395;19;20018;-59
2022/10/23 10:51:50;;;;;;;0.10;0.10;;;;;;;16.93;79.91;99107.59;7362458;19;20473;-59
2022/10/23 10:54:24;;;;;;;0.10;0.10;;;;;;;16.97;79.65;99093.25;7356928;19;20027;-59
2022/10/23 10:56:49;;;;;;;0.08;0.08;;;;;;;17.00;79.50;99096.50;7354391;19;20592;-59
2022/10/23 10:59:29;;;;;;;0.03;0.03;;;;;;;17.06;79.72;99097.84;7343204;19;20014;-56
2022/10/23 11:02:18;;;;;;;0.00;0.00;;;;;;;17.11;78.80;99085.97;7356547;19;20018;-59
2022/10/23 11:04:52;;;;;;;0.00;0.00;;;;;;;17.14;79.31;99078.81;7262496;19;20023;-58
2022/10/23 11:07:26;;;;;;;0.00;0.00;;;;;;;17.18;79.58;99075.81;7289429;19;20006;-59
2022/10/23 11:09:54;;;;;;;0.10;0.10;;;;;;;17.17;79.22;99071.50;7284498;19;20089;-59
2022/10/23 11:12:26;;;;;;;0.00;0.00;;;;;;;17.25;79.13;99082.31;7294814;19;20025;-59
2022/10/23 11:14:51;;;;;;;0.00;0.00;;;;;;;17.14;79.67;99045.38;7343713;19;20013;-59
2022/10/23 11:17:36;;;;;;;0.00;0.00;;;;;;;17.36;78.69;99071.78;7355705;19;20011;-59
2022/10/23 11:20:13;;;;;;;0.00;0.00;;;;;;;17.43;78.70;99063.38;7355671;19;20026;-59
2022/10/23 11:22:54;;;;;;;0.00;0.00;;;;;;;17.46;78.69;99064.00;7354238;19;20019;-59
2022/10/23 11:25:29;;;;;;;0.00;0.00;;;;;;;17.49;79.07;99058.50;7357436;19;20014;-58
2022/10/23 11:28:25;;;;;;;0.00;0.00;;;;;;;17.64;79.37;99056.47;7359371;19;20085;-59
2022/10/23 11:30:53;;;;;;;0.10;0.10;;;;;;;17.81;79.67;99053.34;7256369;19;2004517;-60
2022/10/23 11:33:36;;;;;;;0.00;0.00;;;;;;;18.02;79.44;99049.97;7358267;19;20421;-60
2022/10/23 11:36:13;;;;;;;0.03;0.03;;;;;;;18.28;79.94;99058.44;7358668;19;20043;-60
2022/10/23 11:38:40;;;;;;;0.10;0.10;;;;;;;18.54;79.57;99053.69;7358967;19;20039;-60
2022/10/23 11:41:18;;;;;;;0.10;0.10;;;;;;;19.02;80.11;99055.91;7359702;19;20018;-60
2022/10/23 11:43:51;;;;;;;0.00;0.00;;;;;;;19.47;79.19;99045.06;7356735;19;20019;-61
2022/10/23 11:46:22;;;;;;;0.00;0.00;;;;;;;19.95;78.34;99046.09;7359446;19;20362;-60
2022/10/23 11:48:48;;;;;;;0.10;0.10;;;;;;;20.31;77.86;99027.91;7358192;19;22195;-60